createdAt,value
2023-02-21T00:02:38.246Z,100322.00
2023-02-21T00:05:23.659Z,100319.50
2023-02-21T00:08:09.081Z,100332.09
2023-02-21T00:10:55.508Z,100331.47
2023-02-21T00:13:40.535Z,100318.00
2023-02-21T00:16:25.771Z,100309.44
2023-02-21T00:19:11.063Z,100312.94
2023-02-21T00:21:56.496Z,100312.06
2023-02-21T00:24:41.776Z,100304.16
2023-02-21T00:27:26.715Z,100297.63
2023-02-21T00:30:11.860Z,100307.31
2023-02-21T00:32:57.021Z,100291.28
2023-02-21T00:35:42.294Z,100289.78
2023-02-21T00:38:27.475Z,100295.22
2023-02-21T00:41:12.881Z,100289.09
2023-02-21T00:43:58.837Z,100293.56
2023-02-21T00:46:44.096Z,100284.84
2023-02-21T00:49:29.537Z,100288.44
2023-02-21T00:52:15.013Z,100293.72
2023-02-21T00:55:00.122Z,100286.53
2023-02-21T00:57:45.213Z,100282.31
2023-02-21T01:00:42.078Z,100286.69
2023-02-21T01:03:28.512Z,100287.53
2023-02-21T01:06:13.920Z,100287.69
2023-02-21T01:09:03.534Z,100291.19
2023-02-21T01:11:49.849Z,100285.50
2023-02-21T01:14:35.546Z,100276.38
2023-02-21T01:17:20.960Z,100275.78
2023-02-21T01:20:06.108Z,100274.84
2023-02-21T01:22:51.206Z,100269.78
2023-02-21T01:25:36.620Z,100275.91
2023-02-21T01:28:21.817Z,100274.75
2023-02-21T01:31:06.861Z,100287.81
2023-02-21T01:33:57.497Z,100281.47
2023-02-21T01:36:43.359Z,100283.41
2023-02-21T01:39:29.287Z,100270.44
2023-02-21T01:42:14.403Z,100281.69
2023-02-21T01:45:01.672Z,100269.09
2023-02-21T01:47:47.586Z,100275.91
2023-02-21T01:50:38.977Z,100268.69
2023-02-21T01:53:30.546Z,100276.69
2023-02-21T01:56:18.833Z,100276.75
2023-02-21T01:59:06.933Z,100280.00
2023-02-21T02:01:58.758Z,100289.59
2023-02-21T02:04:44.225Z,100281.22
2023-02-21T02:07:29.443Z,100291.81
2023-02-21T02:10:14.902Z,100287.63
2023-02-21T02:12:59.638Z,100277.44
2023-02-21T02:15:41.426Z,100278.47
2023-02-21T02:18:24.522Z,100279.03
2023-02-21T02:21:35.793Z,100283.16
2023-02-21T02:24:11.449Z,100278.25
2023-02-21T02:26:56.959Z,100282.16
2023-02-21T02:29:44.710Z,100275.13
2023-02-21T02:32:29.939Z,100280.31
2023-02-21T02:34:59.265Z,100276.41
2023-02-21T02:37:37.833Z,100271.94
2023-02-21T02:40:20.180Z,100268.34
2023-02-21T02:43:03.801Z,100269.28
2023-02-21T02:45:46.460Z,100275.47
2023-02-21T02:48:26.865Z,100266.84
2023-02-21T02:50:55.017Z,100273.34
2023-02-21T02:53:26.363Z,100269.16
2023-02-21T02:56:00.755Z,100264.72
2023-02-21T02:58:35.067Z,100263.28
2023-02-21T03:01:10.566Z,100266.31
2023-02-21T03:03:52.672Z,100272.63
2023-02-21T03:06:34.161Z,100268.25
2023-02-21T03:09:03.409Z,100263.69
2023-02-21T03:11:30.474Z,100258.50
2023-02-21T03:14:09.687Z,100267.00
2023-02-21T03:16:43.903Z,100267.00
2023-02-21T03:19:12.613Z,100267.94
2023-02-21T03:21:46.847Z,100266.41
2023-02-21T03:24:15.024Z,100270.84
2023-02-21T03:26:44.813Z,100269.28
2023-02-21T03:29:12.291Z,100255.63
2023-02-21T03:31:46.757Z,100263.91
2023-02-21T03:34:13.606Z,100266.09
2023-02-21T03:36:40.755Z,100267.34
2023-02-21T03:39:07.542Z,100269.44
2023-02-21T03:41:34.137Z,100261.19
2023-02-21T03:44:00.737Z,100254.91
2023-02-21T03:46:27.282Z,100258.53
2023-02-21T03:48:53.952Z,100262.16
2023-02-21T03:51:20.541Z,100268.88
2023-02-21T03:53:47.127Z,100270.28
2023-02-21T03:56:13.695Z,100267.06
2023-02-21T03:58:40.242Z,100270.94
2023-02-21T04:01:06.896Z,100269.25
2023-02-21T04:03:33.711Z,100270.25
2023-02-21T04:06:00.321Z,100275.81
2023-02-21T04:08:26.864Z,100273.03
2023-02-21T04:10:53.372Z,100268.50
2023-02-21T04:13:20.664Z,100272.84
2023-02-21T04:15:47.238Z,100275.44
2023-02-21T04:18:13.852Z,100273.69
2023-02-21T04:20:40.379Z,100278.31
2023-02-21T04:23:06.923Z,100267.09
2023-02-21T04:25:33.622Z,100271.47
2023-02-21T04:28:00.234Z,100275.16
2023-02-21T04:30:27.134Z,100266.03
2023-02-21T04:32:53.733Z,100266.03
2023-02-21T04:35:20.431Z,100267.84
2023-02-21T04:37:47.036Z,100262.28
2023-02-21T04:40:13.963Z,100269.25
2023-02-21T04:42:40.682Z,100266.13
2023-02-21T04:45:07.681Z,100269.66
2023-02-21T04:47:34.237Z,100270.50
2023-02-21T04:50:00.999Z,100263.03
2023-02-21T04:52:27.619Z,100270.44
2023-02-21T04:54:54.620Z,100263.69
2023-02-21T04:57:21.280Z,100265.41
2023-02-21T04:59:47.862Z,100258.03
2023-02-21T05:02:14.679Z,100260.72
2023-02-21T05:04:43.154Z,100264.28
2023-02-21T05:07:09.874Z,100260.59
2023-02-21T05:09:36.431Z,100257.56
2023-02-21T05:12:03.047Z,100242.72
2023-02-21T05:14:29.647Z,100252.31
2023-02-21T05:16:56.270Z,100249.97
2023-02-21T05:19:27.684Z,100257.59
2023-02-21T05:21:59.123Z,100252.66
2023-02-21T05:24:27.830Z,100245.19
2023-02-21T05:26:55.023Z,100243.69
2023-02-21T05:29:21.863Z,100247.59
2023-02-21T05:31:48.587Z,100248.31
2023-02-21T05:34:17.501Z,100247.66
2023-02-21T05:36:44.124Z,100244.28
2023-02-21T05:39:10.831Z,100242.38
2023-02-21T05:41:37.674Z,100243.09
2023-02-21T05:44:04.567Z,100243.31
2023-02-21T05:46:34.319Z,100233.13
2023-02-21T05:49:03.161Z,100235.81
2023-02-21T05:51:39.602Z,100248.13
2023-02-21T05:54:07.903Z,100244.41
2023-02-21T05:56:39.520Z,100253.19
2023-02-21T05:59:06.571Z,100258.97
2023-02-21T06:01:33.176Z,100259.53
2023-02-21T06:03:59.806Z,100263.53
2023-02-21T06:06:26.903Z,100261.97
2023-02-21T06:08:53.509Z,100266.13
2023-02-21T06:11:26.169Z,100273.75
2023-02-21T06:13:53.938Z,100271.75
2023-02-21T06:16:21.377Z,100266.91
2023-02-21T06:18:52.694Z,100277.19
2023-02-21T06:21:19.574Z,100284.63
2023-02-21T06:23:46.584Z,100280.06
2023-02-21T06:26:13.912Z,100292.97
2023-02-21T06:28:40.509Z,100286.19
2023-02-21T06:31:07.333Z,100292.66
2023-02-21T06:33:34.762Z,100299.09
2023-02-21T06:36:06.621Z,100300.84
2023-02-21T06:38:35.042Z,100308.97
2023-02-21T06:41:06.002Z,100314.22
2023-02-21T06:43:32.833Z,100307.06
2023-02-21T06:45:59.482Z,100314.47
2023-02-21T06:48:26.187Z,100316.91
2023-02-21T06:50:52.897Z,100306.06
2023-02-21T06:53:19.482Z,100312.63
2023-02-21T06:55:46.075Z,100318.25
2023-02-21T06:58:12.667Z,100313.03
2023-02-21T07:00:39.274Z,100313.63
2023-02-21T07:03:06.141Z,100311.13
2023-02-21T07:05:37.756Z,100324.69
2023-02-21T07:08:05.205Z,100321.44
2023-02-21T07:10:31.940Z,100323.38
2023-02-21T07:12:58.639Z,100326.44
2023-02-21T07:15:25.536Z,100324.25
2023-02-21T07:17:52.086Z,100328.09
2023-02-21T07:20:20.855Z,100316.97
2023-02-21T07:22:47.443Z,100321.78
2023-02-21T07:25:19.768Z,100324.13
2023-02-21T07:27:50.163Z,100326.09
2023-02-21T07:30:17.626Z,100331.16
2023-02-21T07:35:11.762Z,100329.63
2023-02-21T07:37:38.488Z,100318.84
2023-02-21T07:40:09.006Z,100317.13
2023-02-21T07:42:35.640Z,100317.53
2023-02-21T07:45:02.290Z,100308.66
2023-02-21T07:47:28.905Z,100315.72
2023-02-21T07:49:55.775Z,100297.69
2023-02-21T07:52:22.823Z,100306.78
2023-02-21T07:54:49.717Z,100301.34
2023-02-21T07:57:17.688Z,100305.78
2023-02-21T07:59:44.881Z,100296.06
2023-02-21T08:02:12.499Z,100292.72
2023-02-21T08:04:39.710Z,100300.53
2023-02-21T08:07:07.913Z,100301.56
2023-02-21T08:09:36.065Z,100301.81
2023-02-21T08:12:03.086Z,100305.78
2023-02-21T08:14:29.761Z,100308.81
2023-02-21T08:16:56.356Z,100314.84
2023-02-21T08:19:23.042Z,100307.13
2023-02-21T08:21:50.642Z,100302.91
2023-02-21T08:24:18.470Z,100298.56
2023-02-21T08:26:45.733Z,100295.19
2023-02-21T08:29:14.335Z,100303.63
2023-02-21T08:31:42.581Z,100310.47
2023-02-21T08:34:09.626Z,100308.75
2023-02-21T08:36:39.206Z,100301.22
2023-02-21T08:39:07.278Z,100300.13
2023-02-21T08:41:42.404Z,100302.53
2023-02-21T08:44:11.021Z,100310.69
2023-02-21T08:46:39.548Z,100284.06
2023-02-21T08:49:06.292Z,100296.59
2023-02-21T08:51:33.937Z,100302.53
2023-02-21T08:54:00.914Z,100298.47
2023-02-21T08:56:28.205Z,100293.19
2023-02-21T08:58:55.155Z,100283.81
2023-02-21T09:01:23.330Z,100307.84
2023-02-21T09:03:50.613Z,100305.03
2023-02-21T09:06:17.999Z,100292.69
2023-02-21T09:08:44.549Z,100301.31
2023-02-21T09:11:11.208Z,100302.94
2023-02-21T09:13:37.752Z,100305.88
2023-02-21T09:16:04.827Z,100290.84
2023-02-21T09:18:31.939Z,100294.13
2023-02-21T09:20:59.367Z,100286.84
2023-02-21T09:23:29.299Z,100274.22
2023-02-21T09:25:55.823Z,100282.31
2023-02-21T09:28:22.769Z,100277.34
2023-02-21T09:30:50.509Z,100281.31
2023-02-21T09:33:17.468Z,100283.06
2023-02-21T09:35:44.053Z,100287.56
2023-02-21T09:38:10.748Z,100282.47
2023-02-21T09:40:50.755Z,100288.31
2023-02-21T09:43:42.151Z,100292.00
2023-02-21T09:46:32.044Z,100286.44
2023-02-21T09:48:59.370Z,100287.81
2023-02-21T09:51:26.765Z,100290.03
2023-02-21T09:53:56.694Z,100287.16
2023-02-21T09:56:35.243Z,100296.38
2023-02-21T09:59:01.989Z,100290.31
2023-02-21T10:01:47.020Z,100286.91
2023-02-21T10:04:52.621Z,100285.13
2023-02-21T10:07:32.170Z,100279.75
2023-02-21T10:10:16.598Z,100287.13
2023-02-21T10:12:59.496Z,100280.03
2023-02-21T10:15:34.914Z,100271.44
2023-02-21T10:18:21.027Z,100261.41
2023-02-21T10:20:59.487Z,100271.94
2023-02-21T10:23:40.229Z,100253.09
2023-02-21T10:26:11.945Z,100258.19
2023-02-21T10:28:39.617Z,100260.22
2023-02-21T10:31:23.420Z,100255.06
2023-02-21T10:33:50.230Z,100260.25
2023-02-21T10:36:22.994Z,100254.19
2023-02-21T10:39:11.578Z,100249.16
2023-02-21T10:41:41.063Z,100242.66
2023-02-21T10:44:19.648Z,100243.59
2023-02-21T10:47:02.768Z,100239.38
2023-02-21T10:49:39.224Z,100261.13
2023-02-21T10:52:17.012Z,100240.19
2023-02-21T10:55:01.992Z,100239.94
2023-02-21T10:57:32.061Z,100230.69
2023-02-21T10:59:58.952Z,100227.78
2023-02-21T11:02:42.579Z,100224.28
2023-02-21T11:05:14.356Z,100230.88
2023-02-21T11:07:42.633Z,100238.03
2023-02-21T11:10:32.161Z,100229.59
2023-02-21T11:13:16.056Z,100216.22
2023-02-21T11:15:44.922Z,100213.06
2023-02-21T11:18:23.335Z,100204.38
2023-02-21T11:20:51.760Z,100209.66
2023-02-21T11:23:19.491Z,100202.69
2023-02-21T11:25:46.758Z,100200.78
2023-02-21T11:28:13.277Z,100197.97
2023-02-21T11:30:45.348Z,100189.66
2023-02-21T11:33:12.149Z,100194.88
2023-02-21T11:35:48.402Z,100176.16
2023-02-21T11:38:35.854Z,100186.88
2023-02-21T11:41:15.249Z,100191.25
2023-02-21T11:43:49.117Z,100183.72
2023-02-21T11:46:32.855Z,100180.41
2023-02-21T11:48:59.422Z,100179.16
2023-02-21T11:51:36.138Z,100184.66
2023-02-21T11:54:05.075Z,100179.59
2023-02-21T11:56:53.023Z,100181.00
2023-02-21T11:59:24.236Z,100168.59
2023-02-21T12:02:12.548Z,100158.78
2023-02-21T12:04:52.284Z,100159.81
2023-02-21T12:07:42.838Z,100158.91
2023-02-21T12:10:21.164Z,100140.00
2023-02-21T12:12:58.203Z,100151.09
2023-02-21T12:15:30.320Z,100139.28
2023-02-21T12:18:06.662Z,100154.88
2023-02-21T12:20:54.911Z,100147.94
2023-02-21T12:23:36.332Z,100126.56
2023-02-21T12:26:11.854Z,100121.66
2023-02-21T12:28:44.088Z,100131.03
2023-02-21T12:31:10.564Z,100118.00
2023-02-21T12:34:02.792Z,100132.59
2023-02-21T12:36:35.418Z,100127.34
2023-02-21T12:39:17.288Z,100123.19
2023-02-21T12:42:09.346Z,100130.44
2023-02-21T12:45:07.413Z,100143.34
2023-02-21T12:47:42.951Z,100127.53
2023-02-21T12:50:12.430Z,100110.25
2023-02-21T12:53:03.392Z,100116.69
2023-02-21T12:55:35.750Z,100102.38
2023-02-21T12:58:26.234Z,100104.59
2023-02-21T13:01:20.844Z,100104.59
2023-02-21T13:03:53.949Z,100108.94
2023-02-21T13:06:32.616Z,100104.28
2023-02-21T13:09:29.603Z,100100.81
2023-02-21T13:11:58.969Z,100098.59
2023-02-21T13:14:42.064Z,100104.66
2023-02-21T13:17:16.807Z,100101.72
2023-02-21T13:19:49.018Z,100095.34
2023-02-21T13:23:11.821Z,100096.47
2023-02-21T13:25:55.938Z,100096.34
2023-02-21T13:28:24.454Z,100104.84
2023-02-21T13:30:53.996Z,100095.78
2023-02-21T13:33:45.453Z,100094.31
2023-02-21T13:36:29.921Z,100085.94
2023-02-21T13:39:16.791Z,100091.44
2023-02-21T13:41:47.906Z,100082.19
2023-02-21T13:44:31.749Z,100078.69
2023-02-21T13:47:07.356Z,100076.09
2023-02-21T13:49:42.813Z,100068.75
2023-02-21T13:52:24.372Z,100074.97
2023-02-21T13:55:15.815Z,100073.38
2023-02-21T13:58:11.141Z,100074.69
2023-02-21T14:00:37.651Z,100073.81
2023-02-21T14:03:09.796Z,100078.13
2023-02-21T14:05:51.903Z,100080.16
2023-02-21T14:08:26.808Z,100056.91
2023-02-21T14:11:15.222Z,100060.25
2023-02-21T14:13:57.014Z,100061.50
2023-02-21T14:16:29.926Z,100067.28
2023-02-21T14:19:01.490Z,100067.03
2023-02-21T14:21:35.678Z,100066.59
2023-02-21T14:24:11.217Z,100064.94
2023-02-21T14:26:42.822Z,100077.25
2023-02-21T14:29:09.302Z,100063.25
2023-02-21T14:31:59.114Z,100072.78
2023-02-21T14:34:46.969Z,100056.50
2023-02-21T14:37:21.876Z,100067.44
2023-02-21T14:39:52.222Z,100067.88
2023-02-21T14:43:02.393Z,100063.53
2023-02-21T14:46:00.868Z,100063.09
2023-02-21T14:48:48.577Z,100058.06
2023-02-21T14:51:20.971Z,100084.50
2023-02-21T14:54:03.033Z,100067.31
2023-02-21T14:56:35.732Z,100075.09
2023-02-21T14:59:26.772Z,100076.97
2023-02-21T15:02:16.512Z,100066.28
2023-02-21T15:04:48.317Z,100069.88
2023-02-21T15:07:28.450Z,100076.38
2023-02-21T15:10:07.835Z,100063.94
2023-02-21T15:12:39.998Z,100060.19
2023-02-21T15:15:14.605Z,100062.22
2023-02-21T15:17:41.800Z,100068.56
2023-02-21T15:20:17.510Z,100064.66
2023-02-21T15:22:44.552Z,100064.06
2023-02-21T15:25:17.248Z,100063.75
2023-02-21T15:27:43.745Z,100065.91
2023-02-21T15:30:39.925Z,100070.66
2023-02-21T15:33:11.240Z,100054.75
2023-02-21T15:35:42.081Z,100058.47
2023-02-21T15:38:19.371Z,100067.28
2023-02-21T15:40:47.554Z,100062.88
2023-02-21T15:43:45.691Z,100065.59
2023-02-21T15:46:17.974Z,100068.41
2023-02-21T15:48:44.992Z,100072.88
2023-02-21T15:51:13.299Z,100070.31
2023-02-21T15:53:40.168Z,100069.25
2023-02-21T15:56:28.603Z,100075.25
2023-02-21T15:59:28.447Z,100076.06
2023-02-21T16:02:07.784Z,100072.75
2023-02-21T16:04:39.389Z,100079.50
2023-02-21T16:07:15.412Z,100081.53
2023-02-21T16:09:46.886Z,100080.50
2023-02-21T16:12:14.233Z,100083.91
2023-02-21T16:15:00.843Z,100085.47
2023-02-21T16:17:35.155Z,100096.19
2023-02-21T16:20:21.692Z,100093.22
2023-02-21T16:23:13.891Z,100101.06
2023-02-21T16:26:07.377Z,100095.88
2023-02-21T16:28:34.046Z,100099.38
2023-02-21T16:31:02.906Z,100100.63
2023-02-21T16:33:30.372Z,100110.28
2023-02-21T16:35:58.087Z,100103.59
2023-02-21T16:38:26.727Z,100116.63
2023-02-21T16:40:53.496Z,100119.09
2023-02-21T16:43:26.580Z,100117.94
2023-02-21T16:45:56.074Z,100124.03
2023-02-21T16:48:32.917Z,100125.88
2023-02-21T16:51:04.827Z,100124.31
2023-02-21T16:53:32.046Z,100138.53
2023-02-21T16:56:01.212Z,100134.28
2023-02-21T16:58:35.001Z,100143.81
2023-02-21T17:01:05.594Z,100144.63
2023-02-21T17:03:32.178Z,100156.16
2023-02-21T17:06:00.794Z,100159.44
2023-02-21T17:08:28.330Z,100161.59
2023-02-21T17:10:56.961Z,100160.78
2023-02-21T17:13:24.205Z,100158.44
2023-02-21T17:15:54.054Z,100168.78
2023-02-21T17:18:21.267Z,100157.31
2023-02-21T17:20:47.994Z,100165.03
2023-02-21T17:23:14.604Z,100166.06
2023-02-21T17:25:41.375Z,100173.50
2023-02-21T17:28:08.028Z,100174.84
2023-02-21T17:30:34.773Z,100168.78
2023-02-21T17:33:01.491Z,100178.09
2023-02-21T17:35:28.659Z,100185.34
2023-02-21T17:37:55.354Z,100190.25
2023-02-21T17:40:22.836Z,100181.13
2023-02-21T17:42:49.483Z,100187.34
2023-02-21T17:45:20.884Z,100188.38
2023-02-21T17:47:51.659Z,100188.81
2023-02-21T17:50:19.324Z,100194.25
2023-02-21T17:52:46.631Z,100194.81
2023-02-21T17:55:20.409Z,100189.59
2023-02-21T17:57:47.213Z,100190.59
2023-02-21T18:00:24.799Z,100194.38
2023-02-21T18:02:52.694Z,100192.44
2023-02-21T18:05:20.190Z,100193.41
2023-02-21T18:07:51.813Z,100192.19
2023-02-21T18:10:20.832Z,100188.16
2023-02-21T18:12:50.829Z,100198.94
2023-02-21T18:15:19.472Z,100196.16
2023-02-21T18:17:46.008Z,100191.94
2023-02-21T18:20:15.069Z,100193.75
2023-02-21T18:22:41.929Z,100197.88
2023-02-21T18:25:08.698Z,100205.78
2023-02-21T18:27:36.163Z,100192.75
2023-02-21T18:30:03.487Z,100195.34
2023-02-21T18:32:30.163Z,100191.53
2023-02-21T18:34:57.340Z,100185.28
2023-02-21T18:37:23.939Z,100187.56
2023-02-21T18:39:55.011Z,100189.50
2023-02-21T18:42:24.029Z,100186.50
2023-02-21T18:44:51.950Z,100184.47
2023-02-21T18:47:19.590Z,100180.03
2023-02-21T18:49:47.451Z,100184.13
2023-02-21T18:52:15.326Z,100191.25
2023-02-21T18:54:50.390Z,100188.75
2023-02-21T18:57:19.352Z,100188.63
2023-02-21T18:59:46.273Z,100190.56
2023-02-21T19:02:17.588Z,100190.72
2023-02-21T19:04:44.178Z,100194.72
2023-02-21T19:07:19.090Z,100195.56
2023-02-21T19:09:47.614Z,100194.81
2023-02-21T19:12:14.207Z,100197.16
2023-02-21T19:14:40.886Z,100197.44
2023-02-21T19:17:08.649Z,100206.06
2023-02-21T19:19:38.257Z,100200.94
2023-02-21T19:22:05.951Z,100207.25
2023-02-21T19:24:32.529Z,100215.88
2023-02-21T19:26:59.516Z,100212.19
2023-02-21T19:29:26.257Z,100214.84
2023-02-21T19:31:54.163Z,100211.00
2023-02-21T19:34:21.037Z,100209.91
2023-02-21T19:36:47.630Z,100227.75
2023-02-21T19:39:14.234Z,100223.56
2023-02-21T19:41:40.862Z,100225.88
2023-02-21T19:44:08.455Z,100214.06
2023-02-21T19:46:35.174Z,100217.28
2023-02-21T19:49:01.935Z,100218.53
2023-02-21T19:51:31.230Z,100215.84
2023-02-21T19:53:59.242Z,100212.81
2023-02-21T19:56:29.105Z,100218.56
2023-02-21T19:58:55.698Z,100215.78
2023-02-21T20:01:23.097Z,100221.50
2023-02-21T20:03:50.762Z,100221.88
2023-02-21T20:06:18.446Z,100224.44
2023-02-21T20:08:47.912Z,100231.41
2023-02-21T20:11:19.118Z,100228.69
2023-02-21T20:13:45.755Z,100228.69
2023-02-21T20:16:15.460Z,100228.28
2023-02-21T20:18:42.706Z,100225.38
2023-02-21T20:21:09.527Z,100229.69
2023-02-21T20:23:36.330Z,100231.22
2023-02-21T20:26:02.878Z,100231.91
2023-02-21T20:28:29.450Z,100231.97
2023-02-21T20:30:56.188Z,100231.06
2023-02-21T20:33:23.565Z,100227.31
2023-02-21T20:35:51.013Z,100229.47
2023-02-21T20:38:17.728Z,100232.69
2023-02-21T20:40:44.295Z,100235.75
2023-02-21T20:43:11.149Z,100235.84
2023-02-21T20:45:38.534Z,100231.13
2023-02-21T20:48:11.091Z,100232.06
2023-02-21T20:50:38.523Z,100233.38
2023-02-21T20:53:05.762Z,100239.84
2023-02-21T20:55:32.453Z,100242.19
2023-02-21T20:57:59.164Z,100239.56
2023-02-21T21:00:30.511Z,100239.47
2023-02-21T21:02:57.938Z,100237.91
2023-02-21T21:05:25.579Z,100236.06
2023-02-21T21:07:55.635Z,100234.06
2023-02-21T21:10:22.806Z,100221.88
2023-02-21T21:12:51.424Z,100225.28
2023-02-21T21:15:19.981Z,100220.53
2023-02-21T21:17:48.195Z,100223.44
2023-02-21T21:20:17.782Z,100219.94
2023-02-21T21:22:44.719Z,100225.69
2023-02-21T21:25:13.018Z,100225.16
2023-02-21T21:27:42.472Z,100226.78
2023-02-21T21:30:10.980Z,100231.34
2023-02-21T21:32:37.615Z,100232.16
2023-02-21T21:35:07.097Z,100224.34
2023-02-21T21:37:34.964Z,100221.97
2023-02-21T21:40:16.386Z,100222.06
2023-02-21T21:42:45.556Z,100223.78
2023-02-21T21:45:18.567Z,100223.69
2023-02-21T21:47:47.572Z,100222.41
2023-02-21T21:50:18.608Z,100216.75
2023-02-21T21:52:50.389Z,100222.59
2023-02-21T21:55:24.411Z,100220.34
2023-02-21T21:57:55.933Z,100220.56
2023-02-21T22:00:25.241Z,100220.25
2023-02-21T22:02:57.624Z,100225.13
2023-02-21T22:05:31.371Z,100229.09
2023-02-21T22:07:59.037Z,100233.28
2023-02-21T22:10:26.832Z,100231.00
2023-02-21T22:12:56.637Z,100233.31
2023-02-21T22:15:24.397Z,100238.16
2023-02-21T22:17:51.590Z,100232.56
2023-02-21T22:20:21.804Z,100236.81
2023-02-21T22:22:50.728Z,100235.28
2023-02-21T22:25:20.317Z,100236.19
2023-02-21T22:27:49.963Z,100239.53
2023-02-21T22:30:19.933Z,100232.00
2023-02-21T22:32:47.214Z,100234.72
2023-02-21T22:35:18.841Z,100229.31
2023-02-21T22:37:52.969Z,100225.03
2023-02-21T22:40:25.387Z,100223.91
2023-02-21T22:42:54.482Z,100216.59
2023-02-21T22:45:22.656Z,100225.13
2023-02-21T22:47:51.192Z,100227.47
2023-02-21T22:50:21.676Z,100234.53
2023-02-21T22:52:52.119Z,100237.09
2023-02-21T22:55:18.732Z,100231.06
2023-02-21T22:57:45.336Z,100240.59
2023-02-21T23:00:19.613Z,100238.84
2023-02-21T23:02:47.390Z,100231.78
2023-02-21T23:05:21.782Z,100234.78
2023-02-21T23:07:51.319Z,100246.56
2023-02-21T23:10:23.735Z,100243.84
2023-02-21T23:12:56.182Z,100243.72
2023-02-21T23:15:22.837Z,100244.28
2023-02-21T23:17:50.921Z,100253.66
2023-02-21T23:20:23.364Z,100243.88
2023-02-21T23:22:51.977Z,100246.19
2023-02-21T23:25:25.700Z,100248.22
2023-02-21T23:27:57.043Z,100245.09
2023-02-21T23:30:36.337Z,100251.91
2023-02-21T23:33:06.318Z,100245.72
2023-02-21T23:35:34.898Z,100251.38
2023-02-21T23:38:02.505Z,100246.03
2023-02-21T23:40:31.869Z,100244.94
2023-02-21T23:42:58.517Z,100240.84
2023-02-21T23:45:26.401Z,100243.22
2023-02-21T23:47:55.089Z,100248.00
2023-02-21T23:50:30.642Z,100248.53
2023-02-21T23:53:02.532Z,100240.47
2023-02-21T23:55:30.027Z,100246.66
2023-02-21T23:57:59.945Z,100252.69
